sensor_id;sensor_type;location;lat;lon;timestamp;P1;durP1;ratioP1;P2;durP2;ratioP2
1509;SDS011;746;48.688;9.428;2023-06-26T00:02:00;9.80;;;8.80;;
1509;SDS011;746;48.688;9.428;2023-06-26T00:04:21;10.47;;;9.40;;
1509;SDS011;746;48.688;9.428;2023-06-26T00:06:44;10.43;;;9.37;;
1509;SDS011;746;48.688;9.428;2023-06-26T00:09:06;10.27;;;9.17;;
1509;SDS011;746;48.688;9.428;2023-06-26T00:11:27;11.00;;;10.00;;
1509;SDS011;746;48.688;9.428;2023-06-26T00:13:51;9.67;;;8.87;;
1509;SDS011;746;48.688;9.428;2023-06-26T00:16:12;10.50;;;9.40;;
1509;SDS011;746;48.688;9.428;2023-06-26T00:18:35;11.33;;;9.63;;
1509;SDS011;746;48.688;9.428;2023-06-26T00:20:56;9.90;;;8.97;;
1509;SDS011;746;48.688;9.428;2023-06-26T00:23:19;10.47;;;9.47;;
1509;SDS011;746;48.688;9.428;2023-06-26T00:25:41;10.10;;;9.20;;
1509;SDS011;746;48.688;9.428;2023-06-26T00:28:02;11.60;;;9.13;;
1509;SDS011;746;48.688;9.428;2023-06-26T00:30:23;11.10;;;9.90;;
1509;SDS011;746;48.688;9.428;2023-06-26T00:32:45;10.10;;;9.20;;
1509;SDS011;746;48.688;9.428;2023-06-26T00:35:06;10.87;;;9.87;;
1509;SDS011;746;48.688;9.428;2023-06-26T00:37:28;10.47;;;9.57;;
1509;SDS011;746;48.688;9.428;2023-06-26T00:39:53;10.60;;;9.60;;
1509;SDS011;746;48.688;9.428;2023-06-26T00:42:17;10.10;;;9.20;;
1509;SDS011;746;48.688;9.428;2023-06-26T00:44:39;11.87;;;9.17;;
1509;SDS011;746;48.688;9.428;2023-06-26T00:47:03;10.47;;;9.57;;
1509;SDS011;746;48.688;9.428;2023-06-26T00:49:25;10.53;;;9.63;;
1509;SDS011;746;48.688;9.428;2023-06-26T00:51:47;9.37;;;8.57;;
1509;SDS011;746;48.688;9.428;2023-06-26T00:54:08;10.33;;;9.33;;
1509;SDS011;746;48.688;9.428;2023-06-26T00:56:31;11.40;;;9.20;;
1509;SDS011;746;48.688;9.428;2023-06-26T00:58:53;10.83;;;9.80;;
1509;SDS011;746;48.688;9.428;2023-06-26T01:01:15;11.90;;;10.80;;
1509;SDS011;746;48.688;9.428;2023-06-26T01:03:37;11.13;;;9.80;;
1509;SDS011;746;48.688;9.428;2023-06-26T01:06:00;11.10;;;10.00;;
1509;SDS011;746;48.688;9.428;2023-06-26T01:08:22;11.50;;;10.20;;
1509;SDS011;746;48.688;9.428;2023-06-26T01:10:44;10.93;;;9.93;;
1509;SDS011;746;48.688;9.428;2023-06-26T01:13:07;11.50;;;9.93;;
1509;SDS011;746;48.688;9.428;2023-06-26T01:15:29;10.57;;;9.57;;
1509;SDS011;746;48.688;9.428;2023-06-26T01:17:50;11.53;;;10.33;;
1509;SDS011;746;48.688;9.428;2023-06-26T01:20:12;11.23;;;10.23;;
1509;SDS011;746;48.688;9.428;2023-06-26T01:22:37;10.53;;;9.53;;
1509;SDS011;746;48.688;9.428;2023-06-26T01:25:08;11.20;;;10.20;;
1509;SDS011;746;48.688;9.428;2023-06-26T01:27:39;10.33;;;9.37;;
1509;SDS011;746;48.688;9.428;2023-06-26T01:30:02;11.30;;;10.20;;
1509;SDS011;746;48.688;9.428;2023-06-26T01:32:24;10.93;;;9.93;;
1509;SDS011;746;48.688;9.428;2023-06-26T01:34:46;10.57;;;9.67;;
1509;SDS011;746;48.688;9.428;2023-06-26T01:37:08;10.50;;;9.60;;
1509;SDS011;746;48.688;9.428;2023-06-26T01:39:30;10.97;;;10.00;;
1509;SDS011;746;48.688;9.428;2023-06-26T01:41:52;10.43;;;9.43;;
1509;SDS011;746;48.688;9.428;2023-06-26T01:44:17;10.70;;;9.70;;
1509;SDS011;746;48.688;9.428;2023-06-26T01:46:43;10.57;;;9.67;;
1509;SDS011;746;48.688;9.428;2023-06-26T01:49:09;10.37;;;9.40;;
1509;SDS011;746;48.688;9.428;2023-06-26T01:51:35;11.50;;;10.40;;
1509;SDS011;746;48.688;9.428;2023-06-26T01:53:58;10.93;;;9.93;;
1509;SDS011;746;48.688;9.428;2023-06-26T01:56:22;10.40;;;9.50;;
1509;SDS011;746;48.688;9.428;2023-06-26T01:58:48;10.93;;;9.93;;
1509;SDS011;746;48.688;9.428;2023-06-26T02:01:15;10.63;;;9.50;;
1509;SDS011;746;48.688;9.428;2023-06-26T02:03:36;10.70;;;9.70;;
1509;SDS011;746;48.688;9.428;2023-06-26T02:05:58;10.70;;;9.70;;
1509;SDS011;746;48.688;9.428;2023-06-26T02:08:20;10.87;;;9.87;;
1509;SDS011;746;48.688;9.428;2023-06-26T02:10:42;10.90;;;9.90;;
1509;SDS011;746;48.688;9.428;2023-06-26T02:13:07;11.00;;;9.90;;
1509;SDS011;746;48.688;9.428;2023-06-26T02:15:32;10.67;;;9.67;;
1509;SDS011;746;48.688;9.428;2023-06-26T02:17:55;10.17;;;9.27;;
1509;SDS011;746;48.688;9.428;2023-06-26T02:20:17;11.03;;;10.03;;
1509;SDS011;746;48.688;9.428;2023-06-26T02:22:38;12.73;;;10.90;;
1509;SDS011;746;48.688;9.428;2023-06-26T02:25:00;11.20;;;10.10;;
1509;SDS011;746;48.688;9.428;2023-06-26T02:27:21;14.00;;;10.67;;
1509;SDS011;746;48.688;9.428;2023-06-26T02:29:45;12.60;;;11.30;;
1509;SDS011;746;48.688;9.428;2023-06-26T02:32:07;11.03;;;10.03;;
1509;SDS011;746;48.688;9.428;2023-06-26T02:34:30;11.00;;;10.00;;
1509;SDS011;746;48.688;9.428;2023-06-26T02:36:52;11.37;;;10.27;;
1509;SDS011;746;48.688;9.428;2023-06-26T02:39:14;10.80;;;9.80;;
1509;SDS011;746;48.688;9.428;2023-06-26T02:41:36;11.37;;;10.23;;
1509;SDS011;746;48.688;9.428;2023-06-26T02:43:57;11.60;;;10.47;;
1509;SDS011;746;48.688;9.428;2023-06-26T02:46:18;11.13;;;10.03;;
1509;SDS011;746;48.688;9.428;2023-06-26T02:48:40;11.07;;;10.07;;
1509;SDS011;746;48.688;9.428;2023-06-26T02:51:03;11.53;;;10.50;;
1509;SDS011;746;48.688;9.428;2023-06-26T02:53:26;10.47;;;9.57;;
1509;SDS011;746;48.688;9.428;2023-06-26T02:55:48;11.47;;;10.37;;
1509;SDS011;746;48.688;9.428;2023-06-26T02:58:09;11.67;;;10.57;;
1509;SDS011;746;48.688;9.428;2023-06-26T03:00:31;11.73;;;10.63;;
1509;SDS011;746;48.688;9.428;2023-06-26T03:02:52;12.43;;;11.13;;
1509;SDS011;746;48.688;9.428;2023-06-26T03:05:14;12.20;;;10.97;;
1509;SDS011;746;48.688;9.428;2023-06-26T03:07:37;10.77;;;9.87;;
1509;SDS011;746;48.688;9.428;2023-06-26T03:09:58;13.33;;;10.40;;
1509;SDS011;746;48.688;9.428;2023-06-26T03:12:20;10.90;;;9.90;;
1509;SDS011;746;48.688;9.428;2023-06-26T03:14:42;11.57;;;10.40;;
1509;SDS011;746;48.688;9.428;2023-06-26T03:17:06;12.00;;;10.80;;
1509;SDS011;746;48.688;9.428;2023-06-26T03:19:27;12.53;;;10.80;;
1509;SDS011;746;48.688;9.428;2023-06-26T03:21:49;11.90;;;10.67;;
1509;SDS011;746;48.688;9.428;2023-06-26T03:24:11;11.70;;;10.50;;
1509;SDS011;746;48.688;9.428;2023-06-26T03:26:33;12.23;;;10.50;;
1509;SDS011;746;48.688;9.428;2023-06-26T03:28:55;11.80;;;10.60;;
1509;SDS011;746;48.688;9.428;2023-06-26T03:31:16;11.60;;;10.43;;
1509;SDS011;746;48.688;9.428;2023-06-26T03:33:37;12.57;;;10.47;;
1509;SDS011;746;48.688;9.428;2023-06-26T03:36:01;11.47;;;10.27;;
1509;SDS011;746;48.688;9.428;2023-06-26T03:38:22;11.43;;;10.33;;
1509;SDS011;746;48.688;9.428;2023-06-26T03:40:47;11.57;;;10.23;;
1509;SDS011;746;48.688;9.428;2023-06-26T03:43:08;12.57;;;11.47;;
1509;SDS011;746;48.688;9.428;2023-06-26T03:45:30;13.30;;;11.13;;
1509;SDS011;746;48.688;9.428;2023-06-26T03:47:51;11.90;;;10.70;;
1509;SDS011;746;48.688;9.428;2023-06-26T03:50:12;11.60;;;10.40;;
1509;SDS011;746;48.688;9.428;2023-06-26T03:52:37;12.40;;;11.30;;
1509;SDS011;746;48.688;9.428;2023-06-26T03:54:59;12.17;;;10.97;;
1509;SDS011;746;48.688;9.428;2023-06-26T03:57:22;11.77;;;10.67;;
1509;SDS011;746;48.688;9.428;2023-06-26T03:59:46;11.93;;;10.83;;
1509;SDS011;746;48.688;9.428;2023-06-26T04:02:10;11.63;;;10.60;;
1509;SDS011;746;48.688;9.428;2023-06-26T04:04:33;12.67;;;11.37;;
1509;SDS011;746;48.688;9.428;2023-06-26T04:06:56;12.07;;;10.73;;
1509;SDS011;746;48.688;9.428;2023-06-26T04:09:22;12.87;;;11.27;;
1509;SDS011;746;48.688;9.428;2023-06-26T04:11:44;13.10;;;10.77;;
1509;SDS011;746;48.688;9.428;2023-06-26T04:14:06;12.27;;;11.07;;
1509;SDS011;746;48.688;9.428;2023-06-26T04:16:28;12.30;;;11.03;;
1509;SDS011;746;48.688;9.428;2023-06-26T04:18:49;11.83;;;10.73;;
1509;SDS011;746;48.688;9.428;2023-06-26T04:21:11;11.67;;;10.53;;
1509;SDS011;746;48.688;9.428;2023-06-26T04:23:36;11.77;;;10.57;;
1509;SDS011;746;48.688;9.428;2023-06-26T04:25:58;11.93;;;10.73;;
1509;SDS011;746;48.688;9.428;2023-06-26T04:28:20;11.43;;;10.30;;
1509;SDS011;746;48.688;9.428;2023-06-26T04:30:43;12.57;;;10.37;;
1509;SDS011;746;48.688;9.428;2023-06-26T04:33:05;12.07;;;10.87;;
1509;SDS011;746;48.688;9.428;2023-06-26T04:35:26;12.17;;;10.90;;
1509;SDS011;746;48.688;9.428;2023-06-26T04:37:47;11.13;;;10.03;;
1509;SDS011;746;48.688;9.428;2023-06-26T04:40:09;12.10;;;11.00;;
1509;SDS011;746;48.688;9.428;2023-06-26T04:42:31;12.67;;;11.47;;
1509;SDS011;746;48.688;9.428;2023-06-26T04:44:53;11.87;;;10.77;;
1509;SDS011;746;48.688;9.428;2023-06-26T04:47:17;11.83;;;10.63;;
1509;SDS011;746;48.688;9.428;2023-06-26T04:49:41;11.17;;;10.07;;
1509;SDS011;746;48.688;9.428;2023-06-26T04:52:06;11.90;;;10.73;;
1509;SDS011;746;48.688;9.428;2023-06-26T04:54:29;11.90;;;10.70;;
1509;SDS011;746;48.688;9.428;2023-06-26T04:56:51;11.53;;;10.43;;
1509;SDS011;746;48.688;9.428;2023-06-26T04:59:13;11.20;;;10.00;;
1509;SDS011;746;48.688;9.428;2023-06-26T05:01:34;11.23;;;10.13;;
1509;SDS011;746;48.688;9.428;2023-06-26T05:04:00;11.53;;;10.33;;
1509;SDS011;746;48.688;9.428;2023-06-26T05:06:22;12.10;;;10.80;;
1509;SDS011;746;48.688;9.428;2023-06-26T05:08:44;11.23;;;10.13;;
1509;SDS011;746;48.688;9.428;2023-06-26T05:11:05;11.30;;;9.93;;
1509;SDS011;746;48.688;9.428;2023-06-26T05:13:26;10.87;;;9.87;;
1509;SDS011;746;48.688;9.428;2023-06-26T05:15:48;10.70;;;9.60;;
1509;SDS011;746;48.688;9.428;2023-06-26T05:18:09;11.10;;;10.00;;
1509;SDS011;746;48.688;9.428;2023-06-26T05:20:32;10.33;;;9.33;;
1509;SDS011;746;48.688;9.428;2023-06-26T05:22:54;10.67;;;9.60;;
1509;SDS011;746;48.688;9.428;2023-06-26T05:25:16;11.07;;;9.97;;
1509;SDS011;746;48.688;9.428;2023-06-26T05:27:41;10.60;;;9.50;;
1509;SDS011;746;48.688;9.428;2023-06-26T05:30:03;10.80;;;9.80;;
1509;SDS011;746;48.688;9.428;2023-06-26T05:32:25;10.20;;;9.30;;
1509;SDS011;746;48.688;9.428;2023-06-26T05:34:47;10.77;;;9.77;;
1509;SDS011;746;48.688;9.428;2023-06-26T05:37:10;10.63;;;9.63;;
1509;SDS011;746;48.688;9.428;2023-06-26T05:39:35;11.17;;;10.07;;
1509;SDS011;746;48.688;9.428;2023-06-26T05:41:56;12.07;;;10.20;;
1509;SDS011;746;48.688;9.428;2023-06-26T05:44:18;10.90;;;9.90;;
1509;SDS011;746;48.688;9.428;2023-06-26T05:46:39;10.47;;;9.47;;
1509;SDS011;746;48.688;9.428;2023-06-26T05:49:01;10.67;;;9.77;;
1509;SDS011;746;48.688;9.428;2023-06-26T05:51:22;11.13;;;9.53;;
1509;SDS011;746;48.688;9.428;2023-06-26T05:53:45;10.50;;;9.40;;
1509;SDS011;746;48.688;9.428;2023-06-26T05:56:07;10.07;;;9.10;;
1509;SDS011;746;48.688;9.428;2023-06-26T05:58:29;10.80;;;9.80;;
1509;SDS011;746;48.688;9.428;2023-06-26T06:00:51;10.43;;;9.43;;
1509;SDS011;746;48.688;9.428;2023-06-26T06:03:12;11.03;;;9.67;;
1509;SDS011;746;48.688;9.428;2023-06-26T06:05:33;9.90;;;9.00;;
1509;SDS011;746;48.688;9.428;2023-06-26T06:07:55;11.63;;;10.07;;
1509;SDS011;746;48.688;9.428;2023-06-26T06:10:18;10.17;;;9.17;;
1509;SDS011;746;48.688;9.428;2023-06-26T06:12:39;9.97;;;9.03;;
1509;SDS011;746;48.688;9.428;2023-06-26T06:15:00;10.60;;;9.27;;
1509;SDS011;746;48.688;9.428;2023-06-26T06:17:22;9.10;;;8.30;;
1509;SDS011;746;48.688;9.428;2023-06-26T06:19:44;10.20;;;9.20;;
1509;SDS011;746;48.688;9.428;2023-06-26T06:22:06;10.20;;;9.20;;
1509;SDS011;746;48.688;9.428;2023-06-26T06:24:27;9.80;;;8.80;;
1509;SDS011;746;48.688;9.428;2023-06-26T06:26:50;9.80;;;8.80;;
1509;SDS011;746;48.688;9.428;2023-06-26T06:29:11;9.67;;;8.87;;
1509;SDS011;746;48.688;9.428;2023-06-26T06:31:32;11.43;;;9.20;;
1509;SDS011;746;48.688;9.428;2023-06-26T06:33:54;9.53;;;8.53;;
1509;SDS011;746;48.688;9.428;2023-06-26T06:36:15;9.40;;;8.30;;
1509;SDS011;746;48.688;9.428;2023-06-26T06:38:36;9.90;;;9.00;;
1509;SDS011;746;48.688;9.428;2023-06-26T06:40:58;10.20;;;9.33;;
1509;SDS011;746;48.688;9.428;2023-06-26T06:43:20;9.50;;;8.63;;
1509;SDS011;746;48.688;9.428;2023-06-26T06:45:42;11.07;;;8.63;;
1509;SDS011;746;48.688;9.428;2023-06-26T06:48:04;9.20;;;8.33;;
1509;SDS011;746;48.688;9.428;2023-06-26T06:50:26;9.17;;;8.27;;
1509;SDS011;746;48.688;9.428;2023-06-26T06:52:47;8.93;;;8.03;;
1509;SDS011;746;48.688;9.428;2023-06-26T06:55:09;9.10;;;8.30;;
1509;SDS011;746;48.688;9.428;2023-06-26T06:57:31;8.83;;;7.83;;
1509;SDS011;746;48.688;9.428;2023-06-26T06:59:56;10.10;;;8.23;;
1509;SDS011;746;48.688;9.428;2023-06-26T07:02:18;9.13;;;7.90;;
1509;SDS011;746;48.688;9.428;2023-06-26T07:04:39;9.00;;;8.10;;
1509;SDS011;746;48.688;9.428;2023-06-26T07:07:00;9.07;;;8.20;;
1509;SDS011;746;48.688;9.428;2023-06-26T07:09:21;9.20;;;8.30;;
1509;SDS011;746;48.688;9.428;2023-06-26T07:11:43;8.53;;;7.73;;
1509;SDS011;746;48.688;9.428;2023-06-26T07:14:04;8.23;;;7.57;;
1509;SDS011;746;48.688;9.428;2023-06-26T07:16:26;8.70;;;7.90;;
1509;SDS011;746;48.688;9.428;2023-06-26T07:18:48;8.70;;;8.00;;
1509;SDS011;746;48.688;9.428;2023-06-26T07:21:12;8.80;;;7.93;;
1509;SDS011;746;48.688;9.428;2023-06-26T07:23:33;8.03;;;7.33;;
1509;SDS011;746;48.688;9.428;2023-06-26T07:25:54;8.97;;;7.50;;
1509;SDS011;746;48.688;9.428;2023-06-26T07:28:16;7.77;;;7.17;;
1509;SDS011;746;48.688;9.428;2023-06-26T07:30:37;8.00;;;7.30;;
1509;SDS011;746;48.688;9.428;2023-06-26T07:33:00;8.47;;;7.60;;
1509;SDS011;746;48.688;9.428;2023-06-26T07:35:21;8.47;;;7.80;;
1509;SDS011;746;48.688;9.428;2023-06-26T07:37:43;8.70;;;7.87;;
1509;SDS011;746;48.688;9.428;2023-06-26T07:40:04;8.10;;;7.33;;
1509;SDS011;746;48.688;9.428;2023-06-26T07:42:26;7.87;;;7.27;;
1509;SDS011;746;48.688;9.428;2023-06-26T07:44:47;8.37;;;7.57;;
1509;SDS011;746;48.688;9.428;2023-06-26T07:47:09;8.57;;;7.57;;
1509;SDS011;746;48.688;9.428;2023-06-26T07:49:32;8.50;;;7.80;;
1509;SDS011;746;48.688;9.428;2023-06-26T07:51:53;8.37;;;7.67;;
1509;SDS011;746;48.688;9.428;2023-06-26T07:54:15;8.27;;;7.47;;
1509;SDS011;746;48.688;9.428;2023-06-26T07:56:51;8.97;;;8.07;;
1509;SDS011;746;48.688;9.428;2023-06-26T07:59:13;8.37;;;6.90;;
1509;SDS011;746;48.688;9.428;2023-06-26T08:01:34;8.60;;;8.00;;
1509;SDS011;746;48.688;9.428;2023-06-26T08:03:56;7.90;;;7.30;;
1509;SDS011;746;48.688;9.428;2023-06-26T08:06:19;8.23;;;7.63;;
1509;SDS011;746;48.688;9.428;2023-06-26T08:08:40;9.17;;;8.17;;
1509;SDS011;746;48.688;9.428;2023-06-26T08:11:02;8.43;;;7.63;;
1509;SDS011;746;48.688;9.428;2023-06-26T08:13:23;8.90;;;8.20;;
1509;SDS011;746;48.688;9.428;2023-06-26T08:15:44;8.63;;;7.93;;
1509;SDS011;746;48.688;9.428;2023-06-26T08:18:05;8.20;;;7.57;;
1509;SDS011;746;48.688;9.428;2023-06-26T08:20:27;8.40;;;7.67;;
1509;SDS011;746;48.688;9.428;2023-06-26T08:22:49;8.33;;;7.60;;
1509;SDS011;746;48.688;9.428;2023-06-26T08:25:12;8.07;;;7.37;;
1509;SDS011;746;48.688;9.428;2023-06-26T08:27:33;8.03;;;7.40;;
1509;SDS011;746;48.688;9.428;2023-06-26T08:29:55;8.90;;;8.13;;
1509;SDS011;746;48.688;9.428;2023-06-26T08:32:16;8.47;;;7.70;;
1509;SDS011;746;48.688;9.428;2023-06-26T08:34:37;8.77;;;8.17;;
1509;SDS011;746;48.688;9.428;2023-06-26T08:36:59;8.27;;;7.57;;
1509;SDS011;746;48.688;9.428;2023-06-26T08:39:23;8.50;;;7.80;;
1509;SDS011;746;48.688;9.428;2023-06-26T08:41:44;10.17;;;7.80;;
1509;SDS011;746;48.688;9.428;2023-06-26T08:44:05;8.70;;;7.80;;
1509;SDS011;746;48.688;9.428;2023-06-26T08:46:27;8.50;;;7.67;;
1509;SDS011;746;48.688;9.428;2023-06-26T08:48:50;8.43;;;7.60;;
1509;SDS011;746;48.688;9.428;2023-06-26T08:51:12;7.97;;;7.27;;
1509;SDS011;746;48.688;9.428;2023-06-26T08:53:37;10.50;;;7.20;;
1509;SDS011;746;48.688;9.428;2023-06-26T08:56:02;8.03;;;7.33;;
1509;SDS011;746;48.688;9.428;2023-06-26T08:58:23;7.67;;;7.13;;
1509;SDS011;746;48.688;9.428;2023-06-26T09:00:44;8.03;;;7.33;;
1509;SDS011;746;48.688;9.428;2023-06-26T09:03:06;8.03;;;7.50;;
1509;SDS011;746;48.688;9.428;2023-06-26T09:05:27;7.97;;;7.27;;
1509;SDS011;746;48.688;9.428;2023-06-26T09:07:49;8.03;;;7.37;;
1509;SDS011;746;48.688;9.428;2023-06-26T09:10:12;7.60;;;7.03;;
1509;SDS011;746;48.688;9.428;2023-06-26T09:12:35;8.40;;;7.03;;
1509;SDS011;746;48.688;9.428;2023-06-26T09:14:57;7.70;;;7.13;;
1509;SDS011;746;48.688;9.428;2023-06-26T09:17:19;7.77;;;7.03;;
1509;SDS011;746;48.688;9.428;2023-06-26T09:19:46;7.60;;;6.90;;
1509;SDS011;746;48.688;9.428;2023-06-26T09:22:10;8.17;;;7.33;;
1509;SDS011;746;48.688;9.428;2023-06-26T09:24:32;8.00;;;7.30;;
1509;SDS011;746;48.688;9.428;2023-06-26T09:26:54;7.43;;;6.93;;
1509;SDS011;746;48.688;9.428;2023-06-26T09:29:17;8.00;;;7.30;;
1509;SDS011;746;48.688;9.428;2023-06-26T09:31:39;8.33;;;7.63;;
1509;SDS011;746;48.688;9.428;2023-06-26T09:34:02;7.40;;;6.90;;
1509;SDS011;746;48.688;9.428;2023-06-26T09:36:26;7.80;;;7.13;;
1509;SDS011;746;48.688;9.428;2023-06-26T09:38:47;9.43;;;7.10;;
1509;SDS011;746;48.688;9.428;2023-06-26T09:41:08;7.03;;;6.40;;
1509;SDS011;746;48.688;9.428;2023-06-26T09:43:29;8.20;;;7.43;;
1509;SDS011;746;48.688;9.428;2023-06-26T09:45:53;8.47;;;7.30;;
1509;SDS011;746;48.688;9.428;2023-06-26T09:48:15;7.93;;;7.23;;
1509;SDS011;746;48.688;9.428;2023-06-26T09:50:37;7.23;;;6.53;;
1509;SDS011;746;48.688;9.428;2023-06-26T09:53:22;8.30;;;7.33;;
1509;SDS011;746;48.688;9.428;2023-06-26T09:55:43;7.70;;;7.20;;
1509;SDS011;746;48.688;9.428;2023-06-26T09:58:05;7.63;;;6.97;;
1509;SDS011;746;48.688;9.428;2023-06-26T10:00:26;7.53;;;6.80;;
1509;SDS011;746;48.688;9.428;2023-06-26T10:02:49;7.07;;;6.57;;
1509;SDS011;746;48.688;9.428;2023-06-26T10:05:11;7.20;;;6.50;;
1509;SDS011;746;48.688;9.428;2023-06-26T10:07:33;7.40;;;6.80;;
1509;SDS011;746;48.688;9.428;2023-06-26T10:09:55;7.10;;;6.60;;
1509;SDS011;746;48.688;9.428;2023-06-26T10:12:18;7.50;;;6.80;;
1509;SDS011;746;48.688;9.428;2023-06-26T10:14:41;9.27;;;6.80;;
1509;SDS011;746;48.688;9.428;2023-06-26T10:17:08;7.20;;;6.70;;
1509;SDS011;746;48.688;9.428;2023-06-26T10:19:32;7.00;;;6.23;;
1509;SDS011;746;48.688;9.428;2023-06-26T10:21:54;7.60;;;6.83;;
1509;SDS011;746;48.688;9.428;2023-06-26T10:24:16;7.63;;;6.93;;
1509;SDS011;746;48.688;9.428;2023-06-26T10:26:38;6.93;;;6.40;;
1509;SDS011;746;48.688;9.428;2023-06-26T10:29:03;6.80;;;6.20;;
1509;SDS011;746;48.688;9.428;2023-06-26T10:31:26;7.30;;;6.60;;
1509;SDS011;746;48.688;9.428;2023-06-26T10:33:50;7.07;;;6.53;;
1509;SDS011;746;48.688;9.428;2023-06-26T10:36:14;7.63;;;6.90;;
1509;SDS011;746;48.688;9.428;2023-06-26T10:38:47;8.77;;;6.30;;
1509;SDS011;746;48.688;9.428;2023-06-26T10:41:10;7.00;;;6.40;;
1509;SDS011;746;48.688;9.428;2023-06-26T10:43:31;6.87;;;6.47;;
1509;SDS011;746;48.688;9.428;2023-06-26T10:45:52;6.93;;;6.37;;
1509;SDS011;746;48.688;9.428;2023-06-26T10:48:15;7.40;;;6.67;;
1509;SDS011;746;48.688;9.428;2023-06-26T10:50:37;7.90;;;6.37;;
1509;SDS011;746;48.688;9.428;2023-06-26T10:53:09;9.87;;;6.50;;
1509;SDS011;746;48.688;9.428;2023-06-26T10:55:31;9.30;;;6.80;;
1509;SDS011;746;48.688;9.428;2023-06-26T10:57:54;7.23;;;6.53;;
1509;SDS011;746;48.688;9.428;2023-06-26T11:00:17;10.83;;;6.67;;
1509;SDS011;746;48.688;9.428;2023-06-26T11:02:47;8.07;;;6.23;;
1509;SDS011;746;48.688;9.428;2023-06-26T11:05:08;8.23;;;6.90;;
1509;SDS011;746;48.688;9.428;2023-06-26T11:07:30;7.33;;;6.67;;
1509;SDS011;746;48.688;9.428;2023-06-26T11:09:57;7.77;;;6.87;;
1509;SDS011;746;48.688;9.428;2023-06-26T11:12:33;8.10;;;6.73;;
1509;SDS011;746;48.688;9.428;2023-06-26T11:14:54;8.97;;;7.37;;
1509;SDS011;746;48.688;9.428;2023-06-26T11:17:16;8.40;;;7.47;;
1509;SDS011;746;48.688;9.428;2023-06-26T11:19:40;9.30;;;8.00;;
1509;SDS011;746;48.688;9.428;2023-06-26T11:22:04;9.67;;;7.53;;
1509;SDS011;746;48.688;9.428;2023-06-26T11:24:25;9.00;;;8.07;;
1509;SDS011;746;48.688;9.428;2023-06-26T11:26:48;8.50;;;7.60;;
1509;SDS011;746;48.688;9.428;2023-06-26T11:29:09;8.20;;;7.40;;
1509;SDS011;746;48.688;9.428;2023-06-26T11:31:31;8.50;;;7.67;;
1509;SDS011;746;48.688;9.428;2023-06-26T11:33:53;8.40;;;7.60;;
1509;SDS011;746;48.688;9.428;2023-06-26T11:36:14;8.77;;;7.87;;
1509;SDS011;746;48.688;9.428;2023-06-26T11:38:37;7.77;;;7.17;;
1509;SDS011;746;48.688;9.428;2023-06-26T11:40:59;11.90;;;7.90;;
1509;SDS011;746;48.688;9.428;2023-06-26T11:43:22;9.23;;;7.57;;
1509;SDS011;746;48.688;9.428;2023-06-26T11:45:44;7.60;;;7.10;;
1509;SDS011;746;48.688;9.428;2023-06-26T11:48:05;9.70;;;8.03;;
1509;SDS011;746;48.688;9.428;2023-06-26T11:50:27;8.67;;;7.87;;
1509;SDS011;746;48.688;9.428;2023-06-26T11:52:52;8.03;;;7.30;;
1509;SDS011;746;48.688;9.428;2023-06-26T11:55:13;7.97;;;7.37;;
1509;SDS011;746;48.688;9.428;2023-06-26T11:57:35;8.73;;;7.83;;
1509;SDS011;746;48.688;9.428;2023-06-26T11:59:57;8.03;;;7.33;;
1509;SDS011;746;48.688;9.428;2023-06-26T12:02:20;8.10;;;7.40;;
1509;SDS011;746;48.688;9.428;2023-06-26T12:04:42;8.63;;;7.70;;
1509;SDS011;746;48.688;9.428;2023-06-26T12:07:04;7.70;;;7.00;;
1509;SDS011;746;48.688;9.428;2023-06-26T12:09:29;8.50;;;7.80;;
1509;SDS011;746;48.688;9.428;2023-06-26T12:11:53;8.23;;;7.43;;
1509;SDS011;746;48.688;9.428;2023-06-26T12:14:16;8.60;;;7.90;;
1509;SDS011;746;48.688;9.428;2023-06-26T12:16:39;7.73;;;7.23;;
1509;SDS011;746;48.688;9.428;2023-06-26T12:19:01;8.00;;;7.20;;
1509;SDS011;746;48.688;9.428;2023-06-26T12:21:33;8.03;;;7.33;;
1509;SDS011;746;48.688;9.428;2023-06-26T12:23:57;8.10;;;7.60;;
1509;SDS011;746;48.688;9.428;2023-06-26T12:26:21;8.43;;;7.70;;
1509;SDS011;746;48.688;9.428;2023-06-26T12:28:44;8.80;;;8.00;;
1509;SDS011;746;48.688;9.428;2023-06-26T12:31:14;9.83;;;7.53;;
1509;SDS011;746;48.688;9.428;2023-06-26T12:33:37;9.20;;;8.10;;
1509;SDS011;746;48.688;9.428;2023-06-26T12:35:59;8.37;;;7.67;;
1509;SDS011;746;48.688;9.428;2023-06-26T12:38:21;9.07;;;7.80;;
1509;SDS011;746;48.688;9.428;2023-06-26T12:40:45;7.67;;;7.10;;
1509;SDS011;746;48.688;9.428;2023-06-26T12:43:10;8.73;;;7.87;;
1509;SDS011;746;48.688;9.428;2023-06-26T12:45:37;7.67;;;6.97;;
1509;SDS011;746;48.688;9.428;2023-06-26T12:48:06;8.53;;;7.50;;
1509;SDS011;746;48.688;9.428;2023-06-26T12:50:29;7.80;;;7.10;;
1509;SDS011;746;48.688;9.428;2023-06-26T12:52:58;7.60;;;6.90;;
1509;SDS011;746;48.688;9.428;2023-06-26T12:55:19;7.90;;;7.13;;
1509;SDS011;746;48.688;9.428;2023-06-26T12:57:41;7.80;;;7.10;;
1509;SDS011;746;48.688;9.428;2023-06-26T13:00:02;8.00;;;7.30;;
1509;SDS011;746;48.688;9.428;2023-06-26T13:02:25;8.17;;;7.37;;
1509;SDS011;746;48.688;9.428;2023-06-26T13:04:46;7.43;;;6.73;;
1509;SDS011;746;48.688;9.428;2023-06-26T13:07:09;8.13;;;7.17;;
1509;SDS011;746;48.688;9.428;2023-06-26T13:09:32;7.93;;;7.07;;
1509;SDS011;746;48.688;9.428;2023-06-26T13:11:55;9.17;;;7.00;;
1509;SDS011;746;48.688;9.428;2023-06-26T13:14:16;8.07;;;7.27;;
1509;SDS011;746;48.688;9.428;2023-06-26T13:16:37;10.33;;;7.40;;
1509;SDS011;746;48.688;9.428;2023-06-26T13:18:59;8.07;;;7.33;;
1509;SDS011;746;48.688;9.428;2023-06-26T13:21:21;10.53;;;6.97;;
1509;SDS011;746;48.688;9.428;2023-06-26T13:23:43;7.60;;;6.90;;
1509;SDS011;746;48.688;9.428;2023-06-26T13:26:05;7.90;;;7.30;;
1509;SDS011;746;48.688;9.428;2023-06-26T13:28:26;7.80;;;7.10;;
1509;SDS011;746;48.688;9.428;2023-06-26T13:30:48;7.27;;;6.77;;
1509;SDS011;746;48.688;9.428;2023-06-26T13:33:09;8.00;;;7.43;;
1509;SDS011;746;48.688;9.428;2023-06-26T13:35:31;8.13;;;7.43;;
1509;SDS011;746;48.688;9.428;2023-06-26T13:37:52;9.30;;;7.20;;
1509;SDS011;746;48.688;9.428;2023-06-26T13:40:15;7.23;;;6.53;;
1509;SDS011;746;48.688;9.428;2023-06-26T13:42:37;8.40;;;6.77;;
1509;SDS011;746;48.688;9.428;2023-06-26T13:44:58;7.67;;;7.10;;
1509;SDS011;746;48.688;9.428;2023-06-26T13:47:28;7.83;;;7.13;;
1509;SDS011;746;48.688;9.428;2023-06-26T13:49:50;8.03;;;7.20;;
1509;SDS011;746;48.688;9.428;2023-06-26T13:52:11;8.00;;;7.20;;
1509;SDS011;746;48.688;9.428;2023-06-26T13:54:33;8.03;;;7.33;;
1509;SDS011;746;48.688;9.428;2023-06-26T13:56:56;7.63;;;6.93;;
1509;SDS011;746;48.688;9.428;2023-06-26T13:59:18;8.20;;;7.50;;
1509;SDS011;746;48.688;9.428;2023-06-26T14:01:41;8.83;;;7.10;;
1509;SDS011;746;48.688;9.428;2023-06-26T14:04:04;7.50;;;6.80;;
1509;SDS011;746;48.688;9.428;2023-06-26T14:06:25;7.53;;;6.83;;
1509;SDS011;746;48.688;9.428;2023-06-26T14:08:47;8.07;;;7.27;;
1509;SDS011;746;48.688;9.428;2023-06-26T14:11:08;7.47;;;6.83;;
1509;SDS011;746;48.688;9.428;2023-06-26T14:13:31;7.80;;;7.00;;
1509;SDS011;746;48.688;9.428;2023-06-26T14:15:52;7.30;;;6.70;;
1509;SDS011;746;48.688;9.428;2023-06-26T14:18:14;7.73;;;6.63;;
1509;SDS011;746;48.688;9.428;2023-06-26T14:20:35;6.93;;;6.33;;
1509;SDS011;746;48.688;9.428;2023-06-26T14:22:57;7.10;;;6.53;;
1509;SDS011;746;48.688;9.428;2023-06-26T14:25:19;7.33;;;6.60;;
1509;SDS011;746;48.688;9.428;2023-06-26T14:27:40;14.13;;;6.80;;
1509;SDS011;746;48.688;9.428;2023-06-26T14:30:04;6.30;;;5.77;;
1509;SDS011;746;48.688;9.428;2023-06-26T14:32:25;7.00;;;6.37;;
1509;SDS011;746;48.688;9.428;2023-06-26T14:34:46;8.03;;;6.50;;
1509;SDS011;746;48.688;9.428;2023-06-26T14:37:08;6.57;;;6.17;;
1509;SDS011;746;48.688;9.428;2023-06-26T14:39:29;7.93;;;6.43;;
1509;SDS011;746;48.688;9.428;2023-06-26T14:41:51;8.10;;;6.50;;
1509;SDS011;746;48.688;9.428;2023-06-26T14:44:13;8.00;;;6.27;;
1509;SDS011;746;48.688;9.428;2023-06-26T14:46:37;6.77;;;6.27;;
1509;SDS011;746;48.688;9.428;2023-06-26T14:48:59;6.60;;;6.20;;
1509;SDS011;746;48.688;9.428;2023-06-26T14:51:20;9.73;;;6.97;;